createdAt,value
2023-04-28T00:01:21.158Z,4.90
2023-04-28T00:03:53.638Z,4.40
2023-04-28T00:06:26.408Z,3.70
2023-04-28T00:08:58.925Z,5.30
2023-04-28T00:11:31.128Z,4.20
2023-04-28T00:14:03.457Z,4.40
2023-04-28T00:16:36.277Z,4.50
2023-04-28T00:19:09.664Z,8.20
2023-04-28T00:21:41.974Z,4.70
2023-04-28T00:24:14.536Z,6.10
2023-04-28T00:26:46.963Z,5.10
2023-04-28T00:29:19.338Z,5.00
2023-04-28T00:31:51.670Z,6.50
2023-04-28T00:34:24.068Z,5.50
2023-04-28T00:36:56.475Z,5.20
2023-04-28T00:39:28.880Z,5.00
2023-04-28T00:42:02.298Z,5.40
2023-04-28T00:44:34.589Z,4.60
2023-04-28T00:47:07.263Z,5.70
2023-04-28T00:49:39.841Z,5.10
2023-04-28T00:52:12.702Z,4.40
2023-04-28T00:54:45.132Z,3.90
2023-04-28T00:57:17.449Z,5.70
2023-04-28T00:59:49.752Z,4.40
2023-04-28T01:02:22.352Z,7.20
2023-04-28T01:04:57.484Z,5.10
2023-04-28T01:07:29.854Z,6.30
2023-04-28T01:10:02.340Z,5.10
2023-04-28T01:12:34.718Z,4.30
2023-04-28T01:15:09.115Z,4.30
2023-04-28T01:17:41.548Z,5.30
2023-04-28T01:20:15.268Z,5.30
2023-04-28T01:22:47.606Z,4.60
2023-04-28T01:25:20.388Z,4.50
2023-04-28T01:27:52.905Z,4.60
2023-04-28T01:30:25.173Z,5.20
2023-04-28T01:32:57.422Z,5.70
2023-04-28T01:35:29.883Z,5.60
2023-04-28T01:38:02.162Z,8.40
2023-04-28T01:40:34.918Z,4.00
2023-04-28T01:43:07.302Z,5.50
2023-04-28T01:45:39.617Z,5.40
2023-04-28T01:48:12.114Z,5.60
2023-04-28T01:50:44.513Z,5.00
2023-04-28T01:53:20.703Z,7.50
2023-04-28T01:55:53.048Z,5.00
2023-04-28T01:58:26.990Z,7.00
2023-04-28T02:00:59.908Z,6.00
2023-04-28T02:03:32.384Z,6.90
2023-04-28T02:06:05.230Z,5.80
2023-04-28T02:08:37.467Z,5.70
2023-04-28T02:11:09.730Z,5.30
2023-04-28T02:13:42.440Z,7.60
2023-04-28T02:16:14.849Z,6.90
2023-04-28T02:18:47.306Z,5.00
2023-04-28T02:21:19.797Z,5.70
2023-04-28T02:23:52.302Z,5.60
2023-04-28T02:26:24.638Z,8.00
2023-04-28T02:28:57.015Z,6.30
2023-04-28T02:31:29.302Z,6.50
2023-04-28T02:34:01.923Z,7.90
2023-04-28T02:36:34.420Z,6.20
2023-04-28T02:39:06.976Z,7.40
2023-04-28T02:41:39.244Z,8.00
2023-04-28T02:44:11.564Z,7.10
2023-04-28T02:46:44.044Z,6.50
2023-04-28T02:49:16.551Z,5.50
2023-04-28T02:51:48.845Z,6.80
2023-04-28T02:54:27.749Z,6.20
2023-04-28T02:57:01.538Z,7.50
2023-04-28T02:59:33.968Z,5.50
2023-04-28T03:02:06.303Z,7.20
2023-04-28T03:04:38.783Z,8.10
2023-04-28T03:07:11.178Z,6.00
2023-04-28T03:09:43.523Z,6.50
2023-04-28T03:12:15.849Z,6.10
2023-04-28T03:14:48.240Z,6.60
2023-04-28T03:17:20.935Z,8.20
2023-04-28T03:19:53.252Z,7.30
2023-04-28T03:22:25.692Z,7.00
2023-04-28T03:24:57.960Z,8.50
2023-04-28T03:27:30.641Z,6.30
2023-04-28T03:30:02.812Z,6.80
2023-04-28T03:32:35.139Z,7.30
2023-04-28T03:35:08.087Z,6.70
2023-04-28T03:37:40.889Z,8.50
2023-04-28T03:40:14.517Z,6.90
2023-04-28T03:42:47.064Z,6.30
2023-04-28T03:45:19.636Z,7.10
2023-04-28T03:47:51.915Z,8.10
2023-04-28T03:50:26.535Z,6.80
2023-04-28T03:52:59.314Z,10.00
2023-04-28T03:55:31.835Z,8.10
2023-04-28T03:58:04.468Z,7.70
2023-04-28T04:00:36.852Z,7.70
2023-04-28T04:03:09.446Z,7.20
2023-04-28T04:05:42.729Z,8.20
2023-04-28T04:08:15.136Z,9.90
2023-04-28T04:10:47.596Z,8.50
2023-04-28T04:13:20.019Z,6.90
2023-04-28T04:15:53.381Z,7.20
2023-04-28T04:18:25.853Z,7.80
2023-04-28T04:20:58.157Z,6.70
2023-04-28T04:23:30.518Z,6.00
2023-04-28T04:26:02.836Z,8.30
2023-04-28T04:28:35.170Z,7.50
2023-04-28T04:31:08.691Z,7.90
2023-04-28T04:33:41.360Z,9.60
2023-04-28T04:36:13.743Z,8.10
2023-04-28T04:38:46.170Z,8.00
2023-04-28T04:41:20.851Z,7.70
2023-04-28T04:43:53.138Z,9.30
2023-04-28T04:46:25.807Z,9.50
2023-04-28T04:48:58.281Z,6.40
2023-04-28T04:51:30.667Z,8.20
2023-04-28T04:54:02.961Z,9.20
2023-04-28T04:56:35.371Z,7.00
2023-04-28T04:59:08.566Z,7.40
2023-04-28T05:01:40.936Z,7.40
2023-04-28T05:04:13.627Z,6.40
2023-04-28T05:06:46.248Z,6.60
2023-04-28T05:09:18.690Z,7.10
2023-04-28T05:11:51.000Z,7.70
2023-04-28T05:14:23.348Z,8.60
2023-04-28T05:16:55.927Z,6.60
2023-04-28T05:19:28.368Z,7.60
2023-04-28T05:22:01.839Z,6.90
2023-04-28T05:24:34.366Z,6.50
2023-04-28T05:27:06.790Z,8.00
2023-04-28T05:29:39.250Z,7.60
2023-04-28T05:32:11.582Z,6.20
2023-04-28T05:34:43.947Z,7.50
2023-04-28T05:37:16.174Z,6.90
2023-04-28T05:39:48.543Z,6.30
2023-04-28T05:42:20.894Z,7.10
2023-04-28T05:44:53.124Z,9.30
2023-04-28T05:47:25.919Z,7.90
2023-04-28T05:49:58.319Z,7.20
2023-04-28T05:52:30.823Z,7.40
2023-04-28T05:55:03.616Z,7.10
2023-04-28T05:57:49.334Z,6.10
2023-04-28T06:00:24.883Z,6.60
2023-04-28T06:02:57.521Z,5.80
2023-04-28T06:05:30.738Z,8.10
2023-04-28T06:08:03.618Z,6.50
2023-04-28T06:10:36.086Z,6.70
2023-04-28T06:13:09.266Z,5.00
2023-04-28T06:15:41.562Z,4.20
2023-04-28T06:18:16.258Z,4.80
2023-04-28T06:20:48.652Z,4.30
2023-04-28T06:23:20.845Z,5.00
2023-04-28T06:25:53.233Z,5.80
2023-04-28T06:28:25.635Z,4.60
2023-04-28T06:31:00.034Z,7.30
2023-04-28T06:33:32.474Z,6.30
2023-04-28T06:36:05.280Z,4.80
2023-04-28T06:38:37.697Z,3.80
2023-04-28T06:41:17.113Z,4.40
2023-04-28T06:43:51.006Z,3.50
2023-04-28T06:46:23.482Z,5.30
2023-04-28T06:48:56.114Z,4.40
2023-04-28T06:51:28.908Z,3.70
2023-04-28T06:54:01.383Z,4.20
2023-04-28T06:56:33.792Z,5.00
2023-04-28T06:59:06.280Z,5.00
2023-04-28T07:01:38.704Z,7.30
2023-04-28T07:04:11.285Z,4.40
2023-04-28T07:06:44.011Z,5.50
2023-04-28T07:09:18.112Z,4.10
2023-04-28T07:11:50.392Z,4.80
2023-04-28T07:14:28.256Z,4.10
2023-04-28T07:17:01.166Z,4.60
2023-04-28T07:19:33.563Z,3.80
2023-04-28T07:22:05.951Z,4.40
2023-04-28T07:24:38.286Z,5.50
2023-04-28T07:27:10.566Z,4.60
2023-04-28T07:29:43.002Z,5.10
2023-04-28T07:32:15.422Z,3.70
2023-04-28T07:34:48.226Z,4.70
2023-04-28T07:37:21.048Z,4.30
2023-04-28T07:39:53.565Z,4.70
2023-04-28T07:42:26.148Z,3.90
2023-04-28T07:44:59.046Z,2.80
2023-04-28T07:47:31.692Z,2.90
2023-04-28T07:50:05.446Z,3.00
2023-04-28T07:52:38.228Z,3.00
2023-04-28T07:55:11.923Z,4.20
2023-04-28T07:57:44.808Z,2.80
2023-04-28T08:00:19.500Z,4.00
2023-04-28T08:02:59.499Z,2.70
2023-04-28T08:05:32.606Z,3.60
2023-04-28T08:08:05.448Z,3.30
2023-04-28T08:10:38.313Z,3.20
2023-04-28T08:13:13.334Z,2.50
2023-04-28T08:16:03.322Z,3.10
2023-04-28T08:18:53.626Z,2.70
2023-04-28T08:21:26.064Z,2.30
2023-04-28T08:23:58.317Z,5.00
2023-04-28T08:26:33.709Z,2.90
2023-04-28T08:29:06.164Z,2.70
2023-04-28T08:31:38.703Z,1.90
2023-04-28T08:34:11.057Z,3.10
2023-04-28T08:36:43.419Z,3.00
2023-04-28T08:39:16.171Z,4.50
2023-04-28T08:41:48.639Z,2.10
2023-04-28T08:44:23.760Z,1.60
2023-04-28T08:47:01.373Z,2.30
2023-04-28T08:49:38.379Z,3.20
2023-04-28T08:52:13.972Z,2.80
2023-04-28T08:54:49.729Z,4.60
2023-04-28T08:57:23.695Z,4.60
2023-04-28T08:59:57.022Z,2.60
2023-04-28T09:02:29.612Z,3.10
2023-04-28T09:05:02.525Z,3.90
2023-04-28T09:07:35.407Z,2.60
2023-04-28T09:10:22.501Z,5.70
2023-04-28T09:12:58.125Z,3.10
2023-04-28T09:15:34.134Z,4.40
2023-04-28T09:18:08.204Z,3.60
2023-04-28T09:20:43.496Z,3.60
2023-04-28T09:23:21.237Z,2.80
2023-04-28T09:26:13.075Z,2.40
2023-04-28T09:28:45.505Z,3.20
2023-04-28T09:31:28.813Z,2.50
2023-04-28T09:34:01.825Z,2.90
2023-04-28T09:36:34.229Z,2.90
2023-04-28T09:39:06.692Z,3.20
2023-04-28T09:41:42.738Z,2.70
2023-04-28T09:44:21.513Z,2.50
2023-04-28T09:46:53.895Z,2.00
2023-04-28T09:49:26.230Z,2.30
2023-04-28T09:52:15.203Z,2.30
2023-04-28T09:54:47.866Z,2.10
2023-04-28T09:57:21.434Z,3.00
2023-04-28T09:59:54.666Z,3.00
2023-04-28T10:05:03.624Z,2.50
2023-04-28T10:07:36.907Z,3.50
2023-04-28T10:10:10.996Z,2.80
2023-04-28T10:12:44.951Z,2.70
2023-04-28T10:15:17.467Z,2.60
2023-04-28T10:17:52.112Z,2.40
2023-04-28T10:20:26.269Z,2.20
2023-04-28T10:23:18.209Z,2.90
2023-04-28T10:25:54.396Z,2.00
2023-04-28T10:28:27.874Z,3.10
2023-04-28T10:31:17.723Z,2.50
2023-04-28T10:33:50.868Z,3.20
2023-04-28T10:36:51.095Z,3.50
2023-04-28T10:39:23.566Z,2.30
2023-04-28T10:41:56.136Z,3.10
2023-04-28T10:44:46.947Z,2.60
2023-04-28T10:47:19.264Z,3.10
2023-04-28T10:50:12.489Z,2.20
2023-04-28T10:52:54.199Z,2.80
2023-04-28T10:55:36.647Z,4.30
2023-04-28T10:58:37.736Z,1.60
2023-04-28T11:01:32.195Z,3.20
2023-04-28T11:04:13.254Z,2.50
2023-04-28T11:06:47.108Z,1.70
2023-04-28T11:09:52.861Z,2.10
2023-04-28T11:12:25.203Z,2.10
2023-04-28T11:14:57.638Z,3.60
2023-04-28T11:17:43.289Z,2.10
2023-04-28T11:20:16.711Z,2.80
2023-04-28T11:22:53.793Z,2.20
2023-04-28T11:25:26.138Z,1.70
2023-04-28T11:28:08.834Z,1.90
2023-04-28T11:30:41.242Z,3.30
2023-04-28T11:33:14.173Z,2.50
2023-04-28T11:35:46.897Z,1.90
2023-04-28T11:38:19.218Z,3.00
2023-04-28T11:41:01.254Z,3.30
2023-04-28T11:43:46.510Z,2.20
2023-04-28T11:46:25.078Z,2.50
2023-04-28T11:49:07.695Z,2.40
2023-04-28T11:51:41.779Z,1.70
2023-04-28T11:54:15.192Z,2.30
2023-04-28T11:56:47.595Z,3.10
2023-04-28T12:02:01.179Z,2.00
2023-04-28T12:04:36.617Z,2.60
2023-04-28T12:07:11.882Z,1.90
2023-04-28T12:09:45.927Z,3.80
2023-04-28T12:12:40.159Z,2.60
2023-04-28T12:15:19.979Z,2.50
2023-04-28T12:17:52.884Z,3.10
2023-04-28T12:20:41.377Z,2.30
2023-04-28T12:23:13.733Z,5.00
2023-04-28T12:25:49.857Z,2.60
2023-04-28T12:28:22.025Z,4.20
2023-04-28T12:31:08.544Z,2.00
2023-04-28T12:33:41.336Z,1.30
2023-04-28T12:36:13.825Z,2.50
2023-04-28T12:38:52.439Z,2.20
2023-04-28T12:41:25.546Z,1.80
2023-04-28T12:43:58.335Z,1.70
2023-04-28T12:46:32.167Z,1.80
2023-04-28T12:49:04.554Z,2.10
2023-04-28T12:51:38.972Z,1.70
2023-04-28T12:54:11.620Z,1.60
2023-04-28T12:56:43.947Z,2.10
2023-04-28T12:59:16.551Z,2.00
2023-04-28T13:01:49.175Z,2.30
2023-04-28T13:04:21.879Z,1.90
2023-04-28T13:06:55.591Z,1.30
2023-04-28T13:09:28.429Z,1.40
2023-04-28T13:12:04.144Z,2.00
2023-04-28T13:14:36.347Z,1.90
2023-04-28T13:17:09.187Z,1.90
2023-04-28T13:19:41.469Z,1.70
2023-04-28T13:22:13.899Z,3.80
2023-04-28T13:24:46.857Z,2.50
2023-04-28T13:27:20.219Z,2.00
2023-04-28T13:29:52.947Z,2.10
2023-04-28T13:32:25.318Z,2.20
2023-04-28T13:34:57.763Z,1.60
2023-04-28T13:37:30.062Z,4.50
2023-04-28T13:40:04.334Z,1.80
2023-04-28T13:42:37.027Z,2.20
2023-04-28T13:45:11.185Z,2.70
2023-04-28T13:47:43.513Z,1.70
2023-04-28T13:50:16.052Z,1.70
2023-04-28T13:52:48.659Z,2.50
2023-04-28T13:55:27.627Z,4.30
2023-04-28T13:58:04.795Z,2.20
2023-04-28T14:00:37.776Z,1.70
2023-04-28T14:03:10.378Z,2.20
2023-04-28T14:05:49.428Z,2.30
2023-04-28T14:08:23.328Z,1.80
2023-04-28T14:10:56.084Z,1.90
2023-04-28T14:13:29.859Z,3.10
2023-04-28T14:16:02.344Z,2.80
2023-04-28T14:18:34.616Z,2.50
2023-04-28T14:21:08.611Z,1.50
2023-04-28T14:23:41.130Z,2.30
2023-04-28T14:26:13.373Z,2.20
2023-04-28T14:28:45.797Z,1.90
2023-04-28T14:31:18.259Z,2.80
2023-04-28T14:33:50.659Z,2.70
2023-04-28T14:36:23.098Z,2.50
2023-04-28T14:38:55.368Z,2.40
2023-04-28T14:41:27.706Z,3.50
2023-04-28T14:43:59.984Z,3.20
2023-04-28T14:46:32.392Z,2.40
2023-04-28T14:49:06.130Z,3.60
2023-04-28T14:51:38.449Z,1.50
2023-04-28T14:54:11.785Z,2.40
2023-04-28T14:56:44.222Z,2.60
2023-04-28T14:59:16.486Z,2.90
2023-04-28T15:01:50.812Z,3.70
2023-04-28T15:04:28.871Z,2.80
2023-04-28T15:07:02.125Z,2.20
2023-04-28T15:09:34.485Z,2.20
2023-04-28T15:12:10.034Z,1.90
2023-04-28T15:14:42.513Z,2.20
2023-04-28T15:17:15.294Z,3.10
2023-04-28T15:19:47.750Z,3.90
2023-04-28T15:22:24.632Z,2.00
2023-04-28T15:24:57.027Z,2.40
2023-04-28T15:27:29.657Z,2.40
2023-04-28T15:30:02.748Z,3.70
2023-04-28T15:32:35.386Z,3.00
2023-04-28T15:35:10.712Z,2.70
2023-04-28T15:37:47.745Z,1.90
2023-04-28T15:40:21.506Z,2.60
2023-04-28T15:42:53.913Z,2.40
2023-04-28T15:45:26.582Z,2.30
2023-04-28T15:47:58.996Z,2.90
2023-04-28T15:50:32.014Z,2.20
2023-04-28T15:53:04.358Z,2.10
2023-04-28T15:55:39.838Z,4.00
2023-04-28T15:58:12.293Z,3.40
2023-04-28T16:00:46.048Z,2.30
2023-04-28T16:03:19.253Z,1.80
2023-04-28T16:05:54.299Z,3.80
2023-04-28T16:08:26.580Z,3.70
2023-04-28T16:10:58.929Z,1.80
2023-04-28T16:13:33.143Z,1.80
2023-04-28T16:16:09.795Z,2.00
2023-04-28T16:18:44.445Z,4.30
2023-04-28T16:21:18.036Z,3.50
2023-04-28T16:23:51.491Z,2.50
2023-04-28T16:26:24.217Z,2.50
2023-04-28T16:28:56.614Z,2.20
2023-04-28T16:31:29.059Z,2.60
2023-04-28T16:34:01.470Z,4.30
2023-04-28T16:36:34.727Z,2.80
2023-04-28T16:39:07.219Z,2.90
2023-04-28T16:41:39.524Z,2.00
2023-04-28T16:44:12.295Z,2.90
2023-04-28T16:46:44.639Z,2.70
2023-04-28T16:49:16.985Z,3.20
2023-04-28T16:52:00.983Z,2.30
2023-04-28T16:54:34.392Z,2.20
2023-04-28T16:57:07.859Z,3.80
2023-04-28T16:59:40.300Z,2.80
2023-04-28T17:02:12.750Z,4.60
2023-04-28T17:04:45.143Z,5.70
2023-04-28T17:07:17.445Z,4.20
2023-04-28T17:09:50.016Z,6.00
2023-04-28T17:12:23.447Z,2.80
2023-04-28T17:14:55.842Z,2.90
2023-04-28T17:17:29.304Z,2.80
2023-04-28T17:20:02.481Z,3.40
2023-04-28T17:22:36.071Z,3.60
2023-04-28T17:25:10.120Z,3.90
2023-04-28T17:27:42.461Z,6.30
2023-04-28T17:30:15.406Z,4.60
2023-04-28T17:32:47.804Z,4.70
2023-04-28T17:35:20.370Z,3.40
2023-04-28T17:37:52.808Z,4.20
2023-04-28T17:40:25.533Z,5.20
2023-04-28T17:42:58.755Z,4.50
2023-04-28T17:45:31.091Z,5.60
2023-04-28T17:48:04.234Z,4.20
2023-04-28T17:50:36.773Z,4.60
2023-04-28T17:53:09.004Z,5.50
2023-04-28T17:55:41.444Z,5.00
2023-04-28T17:58:13.838Z,5.70
2023-04-28T18:00:46.572Z,5.40
2023-04-28T18:03:18.884Z,6.40
2023-04-28T18:05:51.504Z,6.30
2023-04-28T18:08:23.794Z,5.30
2023-04-28T18:10:56.478Z,6.70
2023-04-28T18:13:28.915Z,5.30
2023-04-28T18:16:01.361Z,3.90
2023-04-28T18:18:35.608Z,5.90
2023-04-28T18:21:08.372Z,5.40
2023-04-28T18:23:40.713Z,5.60
2023-04-28T18:26:13.063Z,3.70
2023-04-28T18:28:49.196Z,6.00
2023-04-28T18:31:21.619Z,5.30
2023-04-28T18:33:55.397Z,8.40
2023-04-28T18:36:27.995Z,9.00
2023-04-28T18:39:01.916Z,5.70
2023-04-28T18:41:35.093Z,5.00
2023-04-28T18:44:07.443Z,7.20
2023-04-28T18:46:40.007Z,4.50
2023-04-28T18:49:12.881Z,5.40
2023-04-28T18:51:45.277Z,5.40
2023-04-28T18:54:18.021Z,4.10
2023-04-28T18:56:52.674Z,4.80
2023-04-28T18:59:26.492Z,6.30
2023-04-28T19:01:58.857Z,6.10
2023-04-28T19:04:32.338Z,5.10
2023-04-28T19:07:04.704Z,3.70
2023-04-28T19:09:37.024Z,4.70
2023-04-28T19:12:09.543Z,4.30
2023-04-28T19:14:42.397Z,5.20
2023-04-28T19:17:15.497Z,4.90
2023-04-28T19:19:48.019Z,4.20
2023-04-28T19:22:35.438Z,5.00
2023-04-28T19:25:09.180Z,6.90
2023-04-28T19:27:43.134Z,3.90
2023-04-28T19:30:16.896Z,5.20
2023-04-28T19:32:49.293Z,5.50
2023-04-28T19:35:22.382Z,6.90
2023-04-28T19:37:55.994Z,3.90
2023-04-28T19:40:29.144Z,4.20
2023-04-28T19:43:01.597Z,5.40
2023-04-28T19:45:35.215Z,5.60
2023-04-28T19:48:08.210Z,4.70
2023-04-28T19:50:40.584Z,3.50
2023-04-28T19:53:13.064Z,3.30
2023-04-28T19:55:45.398Z,3.80
2023-04-28T19:58:18.446Z,4.30
2023-04-28T20:00:51.088Z,4.80
2023-04-28T20:03:23.612Z,4.00
2023-04-28T20:05:56.446Z,4.70
2023-04-28T20:08:29.646Z,3.60
2023-04-28T20:11:01.891Z,4.00
2023-04-28T20:13:34.982Z,4.90
2023-04-28T20:16:07.393Z,4.40
2023-04-28T20:18:39.824Z,3.50
2023-04-28T20:21:12.129Z,3.90
2023-04-28T20:23:44.386Z,2.90
2023-04-28T20:26:17.781Z,3.30
2023-04-28T20:28:50.656Z,3.10
2023-04-28T20:31:23.784Z,3.50
2023-04-28T20:33:56.241Z,3.10
2023-04-28T20:36:29.919Z,3.60
2023-04-28T20:39:02.287Z,3.20
2023-04-28T20:41:34.570Z,5.50
2023-04-28T20:44:06.805Z,3.20
2023-04-28T20:46:39.182Z,3.10
2023-04-28T20:49:12.508Z,5.70
2023-04-28T20:51:46.218Z,3.60
2023-04-28T20:54:18.527Z,4.10
2023-04-28T20:56:50.880Z,5.10
2023-04-28T20:59:23.139Z,3.60
2023-04-28T21:01:55.861Z,3.00
2023-04-28T21:04:28.579Z,3.00
2023-04-28T21:07:00.970Z,3.90
2023-04-28T21:09:33.359Z,4.30
2023-04-28T21:12:06.069Z,3.90
2023-04-28T21:14:38.509Z,4.30
2023-04-28T21:17:10.872Z,3.10
2023-04-28T21:19:43.218Z,3.90
2023-04-28T21:22:15.529Z,4.00
2023-04-28T21:24:47.974Z,4.00
2023-04-28T21:27:20.318Z,4.70
2023-04-28T21:29:52.982Z,3.70
2023-04-28T21:32:25.689Z,4.30
2023-04-28T21:34:58.147Z,4.00
2023-04-28T21:37:31.839Z,5.20
2023-04-28T21:40:04.533Z,4.30
2023-04-28T21:42:36.840Z,3.80
2023-04-28T21:45:11.050Z,5.00
2023-04-28T21:47:43.674Z,5.30
2023-04-28T21:50:16.360Z,4.60
2023-04-28T21:52:48.664Z,4.80
2023-04-28T21:55:21.012Z,3.80
2023-04-28T21:57:54.239Z,3.60
2023-04-28T22:00:26.937Z,4.60
2023-04-28T22:03:00.495Z,5.20
2023-04-28T22:05:32.938Z,4.90
2023-04-28T22:08:05.758Z,3.80
2023-04-28T22:10:38.128Z,4.80
2023-04-28T22:13:10.507Z,3.90
2023-04-28T22:15:43.125Z,5.70
2023-04-28T22:18:15.365Z,4.20
2023-04-28T22:20:50.177Z,5.20
2023-04-28T22:23:22.433Z,6.70
2023-04-28T22:25:54.767Z,5.80
2023-04-28T22:28:27.699Z,4.70
2023-04-28T22:31:00.134Z,4.10
2023-04-28T22:33:33.006Z,4.90
2023-04-28T22:36:05.569Z,4.00
2023-04-28T22:38:37.861Z,4.90
2023-04-28T22:41:10.232Z,5.60
2023-04-28T22:43:42.997Z,5.80
2023-04-28T22:46:15.259Z,4.60
2023-04-28T22:48:47.540Z,3.30
2023-04-28T22:51:19.908Z,4.60
2023-04-28T22:53:54.371Z,3.40
2023-04-28T22:56:26.859Z,3.90
2023-04-28T22:58:59.302Z,5.00
2023-04-28T23:01:32.127Z,3.90
2023-04-28T23:04:04.749Z,4.70
2023-04-28T23:06:37.130Z,5.60
2023-04-28T23:09:09.337Z,4.00
2023-04-28T23:11:41.621Z,4.20
2023-04-28T23:14:13.921Z,4.50
2023-04-28T23:16:46.337Z,4.00
2023-04-28T23:19:20.624Z,4.00
2023-04-28T23:21:54.509Z,4.30
2023-04-28T23:24:27.926Z,3.40
2023-04-28T23:27:00.694Z,4.60
2023-04-28T23:29:33.254Z,4.70
2023-04-28T23:32:06.060Z,4.60
2023-04-28T23:34:41.804Z,4.10
2023-04-28T23:39:44.845Z,4.40
2023-04-28T23:42:17.610Z,3.90
2023-04-28T23:44:50.133Z,3.40
2023-04-28T23:47:22.670Z,3.50
2023-04-28T23:49:55.014Z,4.30
2023-04-28T23:52:27.297Z,2.90
2023-04-28T23:54:59.652Z,4.10
2023-04-28T23:57:31.943Z,3.20
